createdAt,value
2024-04-11T00:00:31.782Z,2.28
2024-04-11T00:02:59.711Z,2.25
2024-04-11T00:05:27.404Z,1.35
2024-04-11T00:07:54.701Z,3.20
2024-04-11T00:10:22.030Z,1.45
2024-04-11T00:12:50.236Z,2.95
2024-04-11T00:15:17.756Z,1.52
2024-04-11T00:17:45.761Z,2.42
2024-04-11T00:20:13.218Z,3.80
2024-04-11T00:22:40.496Z,4.68
2024-04-11T00:25:07.900Z,3.92
2024-04-11T00:27:35.405Z,5.63
2024-04-11T00:30:04.276Z,3.17
2024-04-11T00:32:32.095Z,1.60
2024-04-11T00:35:02.938Z,3.65
2024-04-11T00:37:32.819Z,0.80
2024-04-11T00:40:00.353Z,1.13
2024-04-11T00:42:27.814Z,1.83
2024-04-11T00:44:55.622Z,1.45
2024-04-11T00:47:23.896Z,1.60
2024-04-11T00:49:52.164Z,1.85
2024-04-11T00:52:19.637Z,4.00
2024-04-11T00:54:47.740Z,3.60
2024-04-11T00:57:15.201Z,3.00
2024-04-11T00:59:43.193Z,3.80
2024-04-11T01:02:11.449Z,1.52
2024-04-11T01:04:40.647Z,3.20
2024-04-11T01:07:10.338Z,1.95
2024-04-11T01:09:45.802Z,2.80
2024-04-11T01:12:15.306Z,2.33
2024-04-11T01:14:44.404Z,1.75
2024-04-11T01:17:17.878Z,1.40
2024-04-11T01:19:46.122Z,1.08
2024-04-11T01:22:13.453Z,3.90
2024-04-11T01:24:41.935Z,4.22
2024-04-11T01:27:18.491Z,4.18
2024-04-11T01:29:45.887Z,3.47
2024-04-11T01:32:13.262Z,4.53
2024-04-11T01:34:41.332Z,1.58
2024-04-11T01:37:09.211Z,1.75
2024-04-11T01:39:38.775Z,1.48
2024-04-11T01:42:06.675Z,2.42
2024-04-11T01:44:34.147Z,1.02
2024-04-11T01:47:01.503Z,1.58
2024-04-11T01:49:33.183Z,3.70
2024-04-11T01:52:00.738Z,2.13
2024-04-11T01:54:28.041Z,3.75
2024-04-11T01:56:55.585Z,3.38
2024-04-11T01:59:23.007Z,2.40
2024-04-11T02:01:50.328Z,1.95
2024-04-11T02:04:17.682Z,4.45
2024-04-11T02:06:44.998Z,1.95
2024-04-11T02:09:13.623Z,0.90
2024-04-11T02:11:44.680Z,2.08
2024-04-11T02:14:13.648Z,1.45
2024-04-11T02:16:41.490Z,3.05
2024-04-11T02:19:08.974Z,3.63
2024-04-11T02:21:42.666Z,2.17
2024-04-11T02:24:13.297Z,2.97
2024-04-11T02:26:40.601Z,3.22
2024-04-11T02:29:08.361Z,3.83
2024-04-11T02:31:35.680Z,2.00
2024-04-11T02:34:03.577Z,3.20
2024-04-11T02:36:31.302Z,2.72
2024-04-11T02:38:59.496Z,2.13
2024-04-11T02:41:29.509Z,1.67
2024-04-11T02:43:57.371Z,2.17
2024-04-11T02:46:27.106Z,4.70
2024-04-11T02:48:57.763Z,2.15
2024-04-11T02:51:25.269Z,3.20
2024-04-11T02:53:55.304Z,4.13
2024-04-11T02:56:24.551Z,1.38
2024-04-11T02:58:51.819Z,1.83
2024-04-11T03:01:19.180Z,0.82
2024-04-11T03:03:47.609Z,2.15
2024-04-11T03:06:19.568Z,3.25
2024-04-11T03:08:52.005Z,3.83
2024-04-11T03:11:19.857Z,5.45
2024-04-11T03:13:47.213Z,3.35
2024-04-11T03:16:16.141Z,3.47
2024-04-11T03:18:44.616Z,1.95
2024-04-11T03:21:12.304Z,2.67
2024-04-11T03:23:39.731Z,2.03
2024-04-11T03:26:07.135Z,2.42
2024-04-11T03:28:34.426Z,4.30
2024-04-11T03:31:07.240Z,3.05
2024-04-11T03:33:35.430Z,1.98
2024-04-11T03:36:07.502Z,1.60
2024-04-11T03:38:35.687Z,2.60
2024-04-11T03:41:05.844Z,2.58
2024-04-11T03:43:33.674Z,4.32
2024-04-11T03:46:22.927Z,2.90
2024-04-11T03:48:53.040Z,4.38
2024-04-11T03:51:23.684Z,3.17
2024-04-11T03:53:57.854Z,3.95
2024-04-11T03:56:29.244Z,5.68
2024-04-11T03:58:58.039Z,2.85
2024-04-11T04:01:29.531Z,2.85
2024-04-11T04:04:08.985Z,2.30
2024-04-11T04:06:37.168Z,1.38
2024-04-11T04:09:12.008Z,3.63
2024-04-11T04:11:40.643Z,1.63
2024-04-11T04:14:12.588Z,1.98
2024-04-11T04:16:40.678Z,1.40
2024-04-11T04:19:09.287Z,5.13
2024-04-11T04:21:37.650Z,3.30
2024-04-11T04:24:08.534Z,3.17
2024-04-11T04:26:36.898Z,2.40
2024-04-11T04:29:06.142Z,1.63
2024-04-11T04:31:35.396Z,3.38
2024-04-11T04:34:05.862Z,3.55
2024-04-11T04:36:44.249Z,7.03
2024-04-11T04:39:16.411Z,4.68
2024-04-11T04:41:46.143Z,2.25
2024-04-11T04:44:13.907Z,4.53
2024-04-11T04:46:41.323Z,2.88
2024-04-11T04:49:12.356Z,3.65
2024-04-11T04:51:41.128Z,4.65
2024-04-11T04:54:13.756Z,2.90
2024-04-11T04:56:44.229Z,5.53
2024-04-11T04:59:14.119Z,2.42
2024-04-11T05:01:43.100Z,2.25
2024-04-11T05:04:16.923Z,5.03
2024-04-11T05:06:45.721Z,2.67
2024-04-11T05:09:13.117Z,4.63
2024-04-11T05:11:40.955Z,4.50
2024-04-11T05:14:11.023Z,6.85
2024-04-11T05:16:38.918Z,4.63
2024-04-11T05:19:09.794Z,4.90
2024-04-11T05:21:41.310Z,3.10
2024-04-11T05:24:12.307Z,4.70
2024-04-11T05:26:40.089Z,4.53
2024-04-11T05:29:09.656Z,3.50
2024-04-11T05:31:58.042Z,4.50
2024-04-11T05:34:27.829Z,6.53
2024-04-11T05:36:55.839Z,5.60
2024-04-11T05:39:24.373Z,4.78
2024-04-11T05:41:53.535Z,7.57
2024-04-11T05:44:21.391Z,4.05
2024-04-11T05:46:48.827Z,6.32
2024-04-11T05:49:18.594Z,2.65
2024-04-11T05:51:46.835Z,5.25
2024-04-11T05:54:14.935Z,3.35
2024-04-11T05:56:44.167Z,5.43
2024-04-11T05:59:12.206Z,5.20
2024-04-11T06:01:42.111Z,5.45
2024-04-11T06:04:09.711Z,4.30
2024-04-11T06:06:37.024Z,3.55
2024-04-11T06:09:05.463Z,3.75
2024-04-11T06:11:33.303Z,6.20
2024-04-11T06:14:00.844Z,3.33
2024-04-11T06:16:28.259Z,5.55
2024-04-11T06:18:56.573Z,3.65
2024-04-11T06:21:34.652Z,3.90
2024-04-11T06:24:06.489Z,5.68
2024-04-11T06:26:35.224Z,4.55
2024-04-11T06:29:03.600Z,3.60
2024-04-11T06:31:32.484Z,3.55
2024-04-11T06:34:00.414Z,4.00
2024-04-11T06:36:28.019Z,3.47
2024-04-11T06:38:55.453Z,7.25
2024-04-11T06:41:26.346Z,4.63
2024-04-11T06:44:00.395Z,4.22
2024-04-11T06:46:31.658Z,3.80
2024-04-11T06:48:59.100Z,4.45
2024-04-11T06:51:26.815Z,5.30
2024-04-11T06:53:54.249Z,5.25
2024-04-11T06:56:24.323Z,5.47
2024-04-11T06:58:51.746Z,4.13
2024-04-11T07:03:54.953Z,5.35
2024-04-11T07:06:22.360Z,3.75
2024-04-11T07:08:56.508Z,3.15
2024-04-11T07:11:34.012Z,3.28
2024-04-11T07:14:06.940Z,5.22
2024-04-11T07:19:04.384Z,3.17
2024-04-11T07:21:35.891Z,5.35
2024-04-11T07:24:05.742Z,3.35
2024-04-11T07:26:34.835Z,3.17
2024-04-11T07:29:05.523Z,4.20
2024-04-11T07:31:38.473Z,4.07
2024-04-11T07:34:06.208Z,4.45
2024-04-11T07:36:41.845Z,7.35
2024-04-11T07:39:15.607Z,3.90
2024-04-11T07:42:02.150Z,4.75
2024-04-11T07:44:30.144Z,3.10
2024-04-11T07:47:11.219Z,3.40
2024-04-11T07:49:43.494Z,6.90
2024-04-11T07:52:12.614Z,8.15
2024-04-11T07:54:47.906Z,3.95
2024-04-11T07:57:21.536Z,5.35
2024-04-11T07:59:49.044Z,8.05
2024-04-11T08:02:16.733Z,3.75
2024-04-11T08:04:44.277Z,4.07
2024-04-11T08:07:11.632Z,4.95
2024-04-11T08:09:57.324Z,7.38
2024-04-11T08:12:25.629Z,4.10
2024-04-11T08:14:53.887Z,5.55
2024-04-11T08:17:22.260Z,5.13
2024-04-11T08:19:56.640Z,3.17
2024-04-11T08:22:29.881Z,8.15
2024-04-11T08:24:57.700Z,5.65
2024-04-11T08:27:25.044Z,3.25
2024-04-11T08:29:52.994Z,4.47
2024-04-11T08:32:23.746Z,9.80
2024-04-11T08:34:52.211Z,3.90
2024-04-11T08:37:20.623Z,6.72
2024-04-11T08:39:47.959Z,3.80
2024-04-11T08:42:15.456Z,3.63
2024-04-11T08:44:45.233Z,3.78
2024-04-11T08:47:12.688Z,3.50
2024-04-11T08:49:40.302Z,3.50
2024-04-11T08:52:08.917Z,3.75
2024-04-11T08:54:42.393Z,3.05
2024-04-11T08:57:14.451Z,4.90
2024-04-11T08:59:46.201Z,4.72
2024-04-11T09:02:13.627Z,4.13
2024-04-11T09:04:41.024Z,6.75
2024-04-11T09:07:22.352Z,7.18
2024-04-11T09:09:53.411Z,4.03
2024-04-11T09:12:24.725Z,5.13
2024-04-11T09:14:52.172Z,2.97
2024-04-11T09:17:22.301Z,3.97
2024-04-11T09:19:51.196Z,3.45
2024-04-11T09:22:23.436Z,4.03
2024-04-11T09:24:52.475Z,5.68
2024-04-11T09:27:21.977Z,3.78
2024-04-11T09:29:49.653Z,3.40
2024-04-11T09:32:23.356Z,4.97
2024-04-11T09:34:54.918Z,4.80
2024-04-11T09:37:25.023Z,4.28
2024-04-11T09:39:58.983Z,4.72
2024-04-11T09:42:31.674Z,8.25
2024-04-11T09:45:01.742Z,5.28
2024-04-11T09:47:33.516Z,5.90
2024-04-11T09:50:07.202Z,4.22
2024-04-11T09:52:41.558Z,5.55
2024-04-11T09:55:10.345Z,4.82
2024-04-11T09:57:42.048Z,5.32
2024-04-11T10:00:10.900Z,5.20
2024-04-11T10:02:41.932Z,6.53
2024-04-11T10:05:17.669Z,4.60
2024-04-11T10:07:47.437Z,6.60
2024-04-11T10:10:27.409Z,5.38
2024-04-11T10:12:56.142Z,7.22
2024-04-11T10:15:23.927Z,4.38
2024-04-11T10:18:06.777Z,5.78
2024-04-11T10:21:04.006Z,5.15
2024-04-11T10:23:35.000Z,6.90
2024-04-11T10:26:08.951Z,6.13
2024-04-11T10:28:52.839Z,5.63
2024-04-11T10:31:23.683Z,5.82
2024-04-11T10:34:12.650Z,7.72
2024-04-11T10:36:44.362Z,6.18
2024-04-11T10:39:11.698Z,4.13
2024-04-11T10:41:41.921Z,5.05
2024-04-11T10:44:09.287Z,4.07
2024-04-11T10:46:39.833Z,5.88
2024-04-11T10:49:29.839Z,5.10
2024-04-11T10:52:00.358Z,5.45
2024-04-11T10:54:28.193Z,7.18
2024-04-11T10:56:56.220Z,8.38
2024-04-11T10:59:29.629Z,6.32
2024-04-11T11:02:11.801Z,8.75
2024-04-11T11:04:46.086Z,5.72
2024-04-11T11:07:13.458Z,5.47
2024-04-11T11:09:47.950Z,7.63
2024-04-11T11:12:17.848Z,5.18
2024-04-11T11:14:47.256Z,6.63
2024-04-11T11:17:20.274Z,7.30
2024-04-11T11:19:52.194Z,6.55
2024-04-11T11:22:35.702Z,5.55
2024-04-11T11:25:10.833Z,6.95
2024-04-11T11:27:40.236Z,6.13
2024-04-11T11:30:17.963Z,6.53
2024-04-11T11:32:46.271Z,5.97
2024-04-11T11:35:13.814Z,4.00
2024-04-11T11:37:41.234Z,5.63
2024-04-11T11:40:28.118Z,7.82
2024-04-11T11:42:58.758Z,4.13
2024-04-11T11:45:29.169Z,5.03
2024-04-11T11:48:15.168Z,5.88
2024-04-11T11:50:45.602Z,11.48
2024-04-11T11:53:26.791Z,5.93
2024-04-11T11:56:05.495Z,7.95
2024-04-11T11:58:37.938Z,5.88
2024-04-11T12:01:22.069Z,6.03
2024-04-11T12:03:58.288Z,10.07
2024-04-11T12:06:35.454Z,4.15
2024-04-11T12:09:13.243Z,5.78
2024-04-11T12:12:02.756Z,8.18
2024-04-11T12:14:36.158Z,5.22
2024-04-11T12:17:06.839Z,8.00
2024-04-11T12:19:37.451Z,8.35
2024-04-11T12:22:17.750Z,4.28
2024-04-11T12:24:46.967Z,7.95
2024-04-11T12:27:15.396Z,12.25
2024-04-11T12:29:43.947Z,7.13
2024-04-11T12:32:14.674Z,5.38
2024-04-11T12:34:47.198Z,5.65
2024-04-11T12:37:18.068Z,9.80
2024-04-11T12:39:55.924Z,5.20
2024-04-11T12:42:32.043Z,5.68
2024-04-11T12:45:04.697Z,5.75
2024-04-11T12:47:41.850Z,6.22
2024-04-11T12:50:15.681Z,6.82
2024-04-11T12:52:46.714Z,6.75
2024-04-11T12:55:14.488Z,8.18
2024-04-11T12:57:43.458Z,6.70
2024-04-11T13:00:31.461Z,11.32
2024-04-11T13:03:09.057Z,7.72
2024-04-11T13:05:45.886Z,8.80
2024-04-11T13:08:25.272Z,8.02
2024-04-11T13:11:08.694Z,7.90
2024-04-11T13:13:41.950Z,7.30
2024-04-11T13:16:13.116Z,7.78
2024-04-11T13:18:41.941Z,7.60
2024-04-11T13:21:16.033Z,6.63
2024-04-11T13:23:46.834Z,8.93
2024-04-11T13:26:18.731Z,7.65
2024-04-11T13:28:51.456Z,7.78
2024-04-11T13:31:21.935Z,6.30
2024-04-11T13:33:51.284Z,7.07
2024-04-11T13:36:18.618Z,6.47
2024-04-11T13:38:51.192Z,8.85
2024-04-11T13:41:37.554Z,6.93
2024-04-11T13:44:05.012Z,6.90
2024-04-11T13:46:38.108Z,13.05
2024-04-11T13:49:25.326Z,11.25
2024-04-11T13:51:56.612Z,9.45
2024-04-11T13:54:33.611Z,7.63
2024-04-11T13:57:11.749Z,8.23
2024-04-11T13:59:42.589Z,9.48
2024-04-11T14:02:29.887Z,13.23
2024-04-11T14:05:10.138Z,10.93
2024-04-11T14:07:37.603Z,9.85
2024-04-11T14:10:07.930Z,7.95
2024-04-11T14:12:37.474Z,9.23
2024-04-11T14:15:06.341Z,6.88
2024-04-11T14:17:33.962Z,8.02
2024-04-11T14:20:19.342Z,14.00
2024-04-11T14:22:51.672Z,11.65
2024-04-11T14:25:23.402Z,15.40
2024-04-11T14:27:50.703Z,8.70
2024-04-11T14:30:26.756Z,11.95
2024-04-11T14:32:59.952Z,7.68
2024-04-11T14:35:27.561Z,10.15
2024-04-11T14:38:08.794Z,7.28
2024-04-11T14:40:41.097Z,10.38
2024-04-11T14:43:12.828Z,8.75
2024-04-11T14:45:41.743Z,16.55
2024-04-11T14:48:20.588Z,11.75
2024-04-11T14:50:59.997Z,9.85
2024-04-11T14:53:27.457Z,7.72
2024-04-11T14:55:57.696Z,9.48
2024-04-11T14:58:32.741Z,8.95
2024-04-11T15:01:16.354Z,10.15
2024-04-11T15:03:47.370Z,10.43
2024-04-11T15:06:15.182Z,10.50
2024-04-11T15:08:42.943Z,11.15
2024-04-11T15:11:13.503Z,12.48
2024-04-11T15:13:41.059Z,9.70
2024-04-11T15:16:12.236Z,13.07
2024-04-11T15:18:43.459Z,10.18
2024-04-11T15:21:17.166Z,13.02
2024-04-11T15:23:46.002Z,9.48
2024-04-11T15:26:18.231Z,24.05
2024-04-11T15:28:51.816Z,18.30
2024-04-11T15:31:31.459Z,20.75
2024-04-11T15:34:11.809Z,15.82
2024-04-11T15:36:54.303Z,14.18
2024-04-11T15:39:30.533Z,14.38
2024-04-11T15:42:02.296Z,11.07
2024-04-11T15:44:39.158Z,10.50
2024-04-11T15:47:06.890Z,13.75
2024-04-11T15:49:34.648Z,7.28
2024-04-11T15:52:08.678Z,8.48
2024-04-11T15:54:57.110Z,10.32
2024-04-11T15:57:32.758Z,10.43
2024-04-11T16:00:12.457Z,13.60
2024-04-11T16:02:45.442Z,12.10
2024-04-11T16:08:12.411Z,11.27
2024-04-11T16:10:40.406Z,11.32
2024-04-11T16:13:14.259Z,11.70
2024-04-11T16:15:43.593Z,9.05
2024-04-11T16:18:11.778Z,9.63
2024-04-11T16:20:48.537Z,10.35
2024-04-11T16:23:18.061Z,9.02
2024-04-11T16:25:46.052Z,15.32
2024-04-11T16:28:18.371Z,10.50
2024-04-11T16:31:03.972Z,11.35
2024-04-11T16:33:35.672Z,13.73
2024-04-11T16:36:05.378Z,9.80
2024-04-11T16:38:51.726Z,10.02
2024-04-11T16:41:22.259Z,11.50
2024-04-11T16:43:55.691Z,9.40
2024-04-11T16:46:28.254Z,8.88
2024-04-11T16:51:26.724Z,14.65
2024-04-11T16:54:13.167Z,13.60
2024-04-11T16:56:51.529Z,13.68
2024-04-11T16:59:30.923Z,20.52
2024-04-11T17:02:01.906Z,18.17
2024-04-11T17:04:31.610Z,17.00
2024-04-11T17:07:06.167Z,18.83
2024-04-11T17:09:33.431Z,18.98
2024-04-11T17:12:05.362Z,14.68
2024-04-11T17:14:34.939Z,17.73
2024-04-11T17:17:17.842Z,15.32
2024-04-11T17:23:06.279Z,14.85
2024-04-11T17:25:34.819Z,15.07
2024-04-11T17:28:13.582Z,17.63
2024-04-11T17:31:00.782Z,20.77
2024-04-11T17:33:35.528Z,14.25
2024-04-11T17:36:23.365Z,10.45
2024-04-11T17:39:21.768Z,9.52
2024-04-11T17:42:15.133Z,9.00
2024-04-11T17:47:31.753Z,16.15
2024-04-11T17:50:03.121Z,9.02
2024-04-11T17:52:41.092Z,14.02
2024-04-11T17:55:26.301Z,12.77
2024-04-11T17:57:57.736Z,11.98
2024-04-11T18:00:39.050Z,8.32
2024-04-11T18:03:12.227Z,16.60
2024-04-11T18:05:41.605Z,11.90
2024-04-11T18:08:12.617Z,12.77
2024-04-11T18:10:47.022Z,11.73
2024-04-11T18:13:19.562Z,14.13
2024-04-11T18:15:51.654Z,10.48
2024-04-11T18:18:22.166Z,12.68
2024-04-11T18:20:53.191Z,14.20
2024-04-11T18:23:26.012Z,14.98
2024-04-11T18:25:58.574Z,16.42
2024-04-11T18:28:31.636Z,14.70
2024-04-11T18:31:07.342Z,12.60
2024-04-11T18:33:40.013Z,12.60
2024-04-11T18:38:36.360Z,13.45
2024-04-11T18:41:26.971Z,14.55
2024-04-11T18:44:00.125Z,16.98
2024-04-11T18:46:31.119Z,15.13
2024-04-11T18:49:03.491Z,14.82
2024-04-11T18:51:40.768Z,13.13
2024-04-11T18:54:14.578Z,12.80
2024-04-11T18:56:49.253Z,12.45
2024-04-11T18:59:26.588Z,14.65
2024-04-11T19:01:56.434Z,17.05
2024-04-11T19:04:35.899Z,21.33
2024-04-11T19:07:08.862Z,25.35
2024-04-11T19:09:56.042Z,16.70
2024-04-11T19:12:26.830Z,16.00
2024-04-11T19:14:58.223Z,13.27
2024-04-11T19:17:27.543Z,15.00
2024-04-11T19:19:59.529Z,12.45
2024-04-11T19:22:32.458Z,18.10
2024-04-11T19:25:01.031Z,16.10
2024-04-11T19:27:36.187Z,16.15
2024-04-11T19:30:10.757Z,17.13
2024-04-11T19:32:46.555Z,19.10
2024-04-11T19:35:16.038Z,17.17
2024-04-11T19:37:43.396Z,15.93
2024-04-11T19:40:15.293Z,16.88
2024-04-11T19:42:47.227Z,19.43
2024-04-11T19:45:15.342Z,17.67
2024-04-11T19:47:45.980Z,14.18
2024-04-11T19:50:20.009Z,15.82
2024-04-11T19:52:50.935Z,17.45
2024-04-11T19:55:29.022Z,15.98
2024-04-11T19:58:02.480Z,15.25
2024-04-11T20:00:34.773Z,18.75
2024-04-11T20:03:21.938Z,15.80
2024-04-11T20:05:56.834Z,15.13
2024-04-11T20:08:28.191Z,17.15
2024-04-11T20:11:04.787Z,16.40
2024-04-11T20:14:04.397Z,16.25
2024-04-11T20:16:40.057Z,14.30
2024-04-11T20:19:07.602Z,16.17
2024-04-11T20:21:40.354Z,18.77
2024-04-11T20:24:13.269Z,16.55
2024-04-11T20:26:45.354Z,16.13
2024-04-11T20:29:17.672Z,16.25
2024-04-11T20:31:50.400Z,20.55
2024-04-11T20:34:17.705Z,17.50
2024-04-11T20:36:47.007Z,15.35
2024-04-11T20:39:18.141Z,18.60
2024-04-11T20:41:52.449Z,16.27
2024-04-11T20:44:29.854Z,15.30
2024-04-11T20:47:10.733Z,12.70
2024-04-11T20:49:44.569Z,16.98
2024-04-11T20:52:31.713Z,13.05
2024-04-11T20:55:17.287Z,14.80
2024-04-11T20:58:03.087Z,16.38
2024-04-11T21:00:48.714Z,14.13
2024-04-11T21:03:35.083Z,16.40
2024-04-11T21:06:23.177Z,17.88
2024-04-11T21:09:08.906Z,18.15
2024-04-11T21:11:55.179Z,14.88
2024-04-11T21:14:41.100Z,15.05
2024-04-11T21:17:26.896Z,17.85
2024-04-11T21:20:12.796Z,15.50
2024-04-11T21:22:58.519Z,14.98
2024-04-11T21:25:44.797Z,16.23
2024-04-11T21:28:30.635Z,15.00
2024-04-11T21:31:16.240Z,16.83
2024-04-11T21:33:50.375Z,14.85
2024-04-11T21:36:24.536Z,18.13
2024-04-11T21:38:53.871Z,18.23
2024-04-11T21:41:30.519Z,20.08
2024-04-11T21:43:58.464Z,15.60
2024-04-11T21:46:36.701Z,14.07
2024-04-11T21:49:06.556Z,15.18
2024-04-11T21:51:35.408Z,14.63
2024-04-11T21:54:09.959Z,17.23
2024-04-11T21:56:44.659Z,16.73
2024-04-11T21:59:17.050Z,20.23
2024-04-11T22:04:34.156Z,16.48
2024-04-11T22:07:03.179Z,18.27
2024-04-11T22:09:42.664Z,16.30
2024-04-11T22:12:13.290Z,16.98
2024-04-11T22:14:48.115Z,17.42
2024-04-11T22:17:22.294Z,15.18
2024-04-11T22:20:02.129Z,18.30
2024-04-11T22:22:34.492Z,16.75
2024-04-11T22:25:01.931Z,17.02
2024-04-11T22:27:29.984Z,16.45
2024-04-11T22:29:59.551Z,19.15
2024-04-11T22:32:32.895Z,17.95
2024-04-11T22:35:01.014Z,14.63
2024-04-11T22:37:33.962Z,15.35
2024-04-11T22:42:37.331Z,17.27
2024-04-11T22:45:11.906Z,16.27
2024-04-11T22:47:40.237Z,16.25
2024-04-11T22:50:13.247Z,15.18
2024-04-11T22:52:41.400Z,17.70
2024-04-11T22:55:08.671Z,19.10
2024-04-11T22:57:37.880Z,13.75
2024-04-11T23:00:25.108Z,17.50
2024-04-11T23:02:55.615Z,17.10
2024-04-11T23:05:23.070Z,14.98
2024-04-11T23:07:50.400Z,13.35
2024-04-11T23:10:21.514Z,16.40
2024-04-11T23:13:06.190Z,13.15
2024-04-11T23:15:48.586Z,17.55
2024-04-11T23:18:18.437Z,17.15
2024-04-11T23:20:46.980Z,15.73
2024-04-11T23:23:18.776Z,13.82
2024-04-11T23:25:55.520Z,14.23
2024-04-11T23:28:28.871Z,19.90
2024-04-11T23:30:58.059Z,13.80
2024-04-11T23:33:30.826Z,13.88
2024-04-11T23:36:07.781Z,12.85
2024-04-11T23:38:46.237Z,17.10
2024-04-11T23:41:19.321Z,16.95
2024-04-11T23:43:47.767Z,14.48
2024-04-11T23:46:29.444Z,18.92
2024-04-11T23:48:59.248Z,19.38
2024-04-11T23:51:27.320Z,22.00
2024-04-11T23:53:56.084Z,13.50
2024-04-11T23:56:37.463Z,14.85
2024-04-11T23:59:17.594Z,12.52
